首页
METAR-TAF:

METAR-TAF

机场 :

尼亞姆圖古, 多哥

纬度: 09-46N, 经度: 001-06E, 海拔: 342米

当前天气观测

该预报发布于1小时和45分钟前的18:00 UTC
风速2节,风向多变
温度 27°C
湿度 74%
气压 1012 hPa
能见度10公里或以上
散云层高于800英尺
少量云层高于1600英尺, 积雨云.

METAR: DXNG 251800Z VRB02KT 9999 SCT008 FEW016CB 27/22 Q1012 NOSIG

时间: 19:45 (19:45 UTC)

预报

该预报发布于14小时和45分钟前的05:00 UTC
预报有效从25日的 06点(UTC)到 26日的 06点(UTC)
风速5节,风向多变
能见度10公里或以上
少量云层高于600英尺
几率 40% :
短暂存在
从 25日的 15点(UTC)到 25日的 21点(UTC)
多云层高于600英尺
少量云层高于1600英尺, 积雨云.
雷暴

TAF: DXNG 250500Z 2506/2606 VRB05KT 9999 FEW006 PROB40 TEMPO 2515/2521 TS BKN006 FEW016CB

超过4000个机场的气象观测和天气预报(METAR&TAF报告)。

可查询的气象台以黄色和红色小点在地图上表示。

将鼠标移到小点上方,可查看气象台名称。

然后点击查看天气观测和预报。

如需切换地图:点击带黑十字的绿色按钮放大地图;点击带横线的绿色按钮缩小地图;或者点击绿色箭头查看邻近地区的地图。


METAR-TAF: